Time;durP1;ratioP1;P1;durP2;ratioP2;P2;SDS_P1;SDS_P2;PMS_P1;PMS_P2;Temp;Humidity;BMP_temperature;BMP_pressure;BME280_temperature;BME280_humidity;BME280_pressure;Samples;Min_cycle;Max_cycle;Signal;HPM_P1;HPM_P2
2023/04/25 00:00:33;;;;;;;7.75;2.35;;;;;;;18.83;40.78;101029.16;5002481;28;20088;-69
2023/04/25 00:02:59;;;;;;;5.50;2.00;;;;;;;18.81;40.81;101030.22;5001818;28;20033;-71
2023/04/25 00:05:25;;;;;;;4.53;1.80;;;;;;;18.81;40.54;101031.06;4995889;28;20459;-70
2023/04/25 00:07:51;;;;;;;5.68;2.00;;;;;;;18.81;40.61;101036.34;4998244;28;20514;-69
2023/04/25 00:10:16;;;;;;;6.93;2.00;;;;;;;18.79;40.68;101037.44;4983083;28;20066;-69
2023/04/25 00:12:41;;;;;;;5.22;2.05;;;;;;;18.80;40.83;101036.47;4988706;28;20068;-70
2023/04/25 00:15:07;;;;;;;6.68;2.03;;;;;;;18.76;40.71;101035.88;4982800;28;20045;-70
2023/04/25 00:17:34;;;;;;;5.00;2.00;;;;;;;18.77;40.75;101041.97;5000284;28;20034;-70
2023/04/25 00:20:00;;;;;;;7.88;2.15;;;;;;;18.75;40.50;101038.63;4975672;28;20096;-70
2023/04/25 00:22:25;;;;;;;7.22;2.25;;;;;;;18.75;40.64;101049.19;4998541;28;20042;-70
2023/04/25 00:24:53;;;;;;;6.72;2.00;;;;;;;18.74;40.77;101050.16;4990279;28;20052;-70
2023/04/25 00:27:18;;;;;;;5.30;2.08;;;;;;;18.75;40.64;101049.19;4997988;28;20540;-70
2023/04/25 00:29:43;;;;;;;6.63;2.17;;;;;;;18.71;40.66;101045.97;4995310;28;20034;-71
2023/04/25 00:32:08;;;;;;;5.00;2.20;;;;;;;18.71;40.71;101042.47;4993512;28;20057;-70
2023/04/25 00:34:34;;;;;;;5.68;2.05;;;;;;;18.73;40.64;101044.03;4985661;28;20598;-68
2023/04/25 00:37:01;;;;;;;4.93;1.70;;;;;;;18.72;40.48;101041.53;4982409;28;20034;-70
2023/04/25 00:39:27;;;;;;;5.63;2.20;;;;;;;18.70;40.51;101030.25;4982109;28;20034;-70
2023/04/25 00:41:54;;;;;;;5.15;2.08;;;;;;;18.68;40.38;101027.75;4990324;28;20156;-69
2023/04/25 00:44:20;;;;;;;7.40;1.98;;;;;;;18.68;40.54;101031.22;4991462;28;20026;-70
2023/04/25 00:46:47;;;;;;;5.57;1.73;;;;;;;18.68;40.44;101036.50;4982061;28;20038;-69
2023/04/25 00:49:15;;;;;;;6.63;2.20;;;;;;;18.66;40.41;101029.69;5001579;28;20449;-70
2023/04/25 00:51:41;;;;;;;5.13;1.90;;;;;;;18.63;40.60;101030.75;4989332;28;20035;-70
2023/04/25 00:54:07;;;;;;;5.25;1.75;;;;;;;18.64;40.42;101035.06;4987657;28;20045;-69
2023/04/25 00:56:32;;;;;;;5.00;2.13;;;;;;;18.66;40.51;101032.31;4972845;28;20376;-68
2023/04/25 00:58:57;;;;;;;5.13;1.90;;;;;;;18.63;40.56;101038.66;4988525;28;20030;-69
2023/04/25 01:01:23;;;;;;;5.93;1.98;;;;;;;18.63;40.56;101043.94;5000084;28;20812;-69
2023/04/25 01:03:49;;;;;;;4.72;1.70;;;;;;;18.62;40.50;101041.44;5001244;28;20038;-69
2023/04/25 01:06:16;;;;;;;5.07;2.13;;;;;;;18.61;40.50;101037.97;5001536;28;20482;-71
2023/04/25 01:08:41;;;;;;;5.78;2.00;;;;;;;18.63;40.71;101032.56;5001081;28;20042;-69
2023/04/25 01:11:06;;;;;;;6.63;1.83;;;;;;;18.63;40.71;101032.56;5001193;28;20553;-70
2023/04/25 01:13:32;;;;;;;5.95;1.80;;;;;;;18.62;40.74;101034.34;4998748;28;20030;-69
2023/04/25 01:15:59;;;;;;;5.00;1.70;;;;;;;18.62;40.34;101033.50;4990088;28;20034;-70
2023/04/25 01:18:24;;;;;;;6.75;2.20;;;;;;;18.61;40.35;101035.31;4988406;28;20486;-69
2023/04/25 01:20:51;;;;;;;4.97;1.98;;;;;;;18.62;40.30;101036.16;4996055;28;20061;-72
2023/04/25 01:23:16;;;;;;;4.80;1.67;;;;;;;18.60;40.55;101038.09;4987290;28;20662;-69
2023/04/25 01:25:42;;;;;;;5.07;1.58;;;;;;;18.62;40.47;101044.91;4987982;28;20148;-69
2023/04/25 01:28:08;;;;;;;6.50;2.58;;;;;;;18.61;40.23;101045.88;4993929;28;20062;-69
2023/04/25 01:30:34;;;;;;;4.85;1.80;;;;;;;18.61;40.44;101047.66;4988104;28;20031;-71
2023/04/25 01:33:00;;;;;;;6.22;1.65;;;;;;;18.58;40.32;101046.13;4981270;28;20065;-69
2023/04/25 01:35:25;;;;;;;5.88;1.90;;;;;;;18.60;40.45;101053.91;4996364;28;20471;-70
2023/04/25 01:37:51;;;;;;;4.32;1.83;;;;;;;18.59;40.44;101049.59;4996338;28;20461;-71
2023/04/25 01:40:18;;;;;;;4.93;1.63;;;;;;;18.57;40.32;101052.34;4981961;28;20066;-71
2023/04/25 01:42:44;;;;;;;6.05;1.92;;;;;;;18.58;40.25;101054.03;4981541;28;20030;-69
2023/04/25 01:45:10;;;;;;;4.72;1.70;;;;;;;18.55;40.44;101043.72;4981435;28;20119;-70
2023/04/25 01:47:36;;;;;;;5.18;1.80;;;;;;;18.54;40.39;101049.13;4987980;28;20048;-69
2023/04/25 01:50:04;;;;;;;5.80;1.80;;;;;;;18.56;40.34;101055.13;4993751;28;20068;-71
2023/04/25 01:52:29;;;;;;;5.85;1.88;;;;;;;18.55;40.33;101051.66;4989308;28;20038;-69
2023/04/25 01:54:57;;;;;;;6.32;1.80;;;;;;;18.49;40.15;101041.56;4994058;28;20083;-69
2023/04/25 01:57:22;;;;;;;5.32;1.88;;;;;;;18.54;40.08;101055.25;4994774;28;20065;-70
2023/04/25 01:59:47;;;;;;;6.00;1.95;;;;;;;18.54;39.96;101062.31;4968934;28;21246;-70
2023/04/25 02:02:12;;;;;;;4.75;1.60;;;;;;;18.54;40.24;101059.69;4991131;28;20030;-70
2023/04/25 02:04:38;;;;;;;5.93;2.22;;;;;;;18.51;40.02;101059.94;4993832;28;20042;-68
2023/04/25 02:07:03;;;;;;;4.43;1.60;;;;;;;18.51;40.08;101058.13;4982736;28;20072;-68
2023/04/25 02:09:28;;;;;;;4.47;1.60;;;;;;;18.51;40.13;101063.41;4989391;28;20267;-69
2023/04/25 02:11:54;;;;;;;6.07;2.00;;;;;;;18.50;40.29;101069.66;4987283;28;20394;-69
2023/04/25 02:14:19;;;;;;;5.03;1.55;;;;;;;18.47;40.01;101076.00;4991254;28;20251;-69
2023/04/25 02:16:46;;;;;;;4.72;1.80;;;;;;;18.49;40.05;101070.59;4988457;28;20042;-70
2023/04/25 02:19:11;;;;;;;4.88;1.90;;;;;;;18.46;40.15;101068.22;4996197;28;20042;-70
2023/04/25 02:21:36;;;;;;;6.50;2.15;;;;;;;18.46;40.22;101071.69;4990560;28;20034;-69
2023/04/25 02:24:03;;;;;;;4.63;1.60;;;;;;;18.47;39.99;101069.91;4995238;28;20030;-70
2023/04/25 02:26:28;;;;;;;5.35;1.95;;;;;;;18.45;40.35;101063.88;4995241;28;20046;-69
2023/04/25 02:28:54;;;;;;;5.95;1.75;;;;;;;18.47;40.15;101073.38;4987478;28;20109;-69
2023/04/25 02:31:20;;;;;;;4.82;1.95;;;;;;;18.45;40.19;101074.44;4995197;28;20066;-68
2023/04/25 02:33:45;;;;;;;5.50;1.70;;;;;;;18.44;39.95;101076.25;5004284;28;20120;-70
2023/04/25 02:36:11;;;;;;;5.90;1.90;;;;;;;18.41;40.10;101065.94;4997310;28;20035;-69
2023/04/25 02:38:36;;;;;;;4.22;1.67;;;;;;;18.43;40.17;101073.72;4989049;28;20076;-70
2023/04/25 02:41:01;;;;;;;5.30;1.63;;;;;;;18.43;40.31;101077.19;4990830;28;20053;-69
2023/04/25 02:43:26;;;;;;;4.75;1.90;;;;;;;18.42;39.99;101075.53;4987191;28;20038;-69
2023/04/25 02:45:52;;;;;;;5.13;1.77;;;;;;;18.42;40.34;101078.16;4990156;28;20034;-69
2023/04/25 02:48:17;;;;;;;4.57;1.60;;;;;;;18.43;40.12;101079.00;4984165;28;20065;-69
2023/04/25 02:50:42;;;;;;;4.95;1.80;;;;;;;18.43;40.12;101079.00;4992256;28;20064;-70
2023/04/25 02:53:08;;;;;;;4.82;1.90;;;;;;;18.42;39.93;101075.53;4994394;28;20121;-69
2023/04/25 02:55:33;;;;;;;4.05;1.73;;;;;;;18.43;39.88;101073.72;4991641;28;20061;-69
2023/04/25 02:57:58;;;;;;;4.63;1.88;;;;;;;18.40;40.07;101072.16;4991927;28;20672;-68
2023/04/25 03:00:24;;;;;;;4.80;1.60;;;;;;;18.41;39.86;101073.84;4991179;28;20037;-70
2023/04/25 03:02:50;;;;;;;6.63;1.95;;;;;;;18.40;39.93;101076.59;4986940;28;20133;-71
2023/04/25 03:05:16;;;;;;;4.13;1.55;;;;;;;18.36;39.97;101072.50;4978173;28;20050;-69
2023/04/25 03:07:43;;;;;;;5.32;1.70;;;;;;;18.39;39.97;101082.81;4985833;28;20037;-69
2023/04/25 03:10:09;;;;;;;4.57;1.90;;;;;;;18.36;40.01;101069.88;4990222;28;20060;-68
2023/04/25 03:12:34;;;;;;;6.57;1.77;;;;;;;18.37;39.93;101075.03;4994154;28;20042;-69
2023/04/25 03:14:59;;;;;;;5.97;1.85;;;;;;;18.36;39.85;101083.06;4989903;28;20189;-70
2023/04/25 03:17:25;;;;;;;4.32;1.60;;;;;;;18.38;39.90;101087.28;4992583;28;20605;-70
2023/04/25 03:19:50;;;;;;;4.37;1.50;;;;;;;18.37;39.57;101087.41;4998033;28;20034;-70
2023/04/25 03:22:15;;;;;;;4.50;1.92;;;;;;;18.34;39.84;101082.34;4990046;28;20278;-70
2023/04/25 03:24:41;;;;;;;6.20;2.00;;;;;;;18.36;39.85;101088.34;4990658;28;20053;-70
2023/04/25 03:27:06;;;;;;;4.55;1.70;;;;;;;18.33;39.82;101085.97;5003095;28;20187;-70
2023/04/25 03:29:31;;;;;;;4.97;1.80;;;;;;;18.31;39.94;101081.66;4994721;28;20457;-69
2023/04/25 03:31:56;;;;;;;4.80;2.20;;;;;;;18.30;39.96;101079.97;4998544;28;20034;-69
2023/04/25 03:34:22;;;;;;;6.32;1.92;;;;;;;18.34;40.04;101085.00;4997308;28;20079;-69
2023/04/25 03:36:47;;;;;;;4.47;1.80;;;;;;;18.30;40.12;101082.59;4987937;28;20042;-70
2023/04/25 03:39:12;;;;;;;5.15;1.67;;;;;;;18.32;40.02;101085.13;4996263;28;20492;-69
2023/04/25 03:41:38;;;;;;;5.53;1.90;;;;;;;18.31;39.90;101086.09;4977443;28;20038;-71
2023/04/25 03:44:03;;;;;;;6.15;1.90;;;;;;;18.31;39.91;101084.28;4991782;28;20033;-69
2023/04/25 03:46:28;;;;;;;4.35;1.70;;;;;;;18.30;40.16;101081.78;4996750;28;20034;-69
2023/04/25 03:48:54;;;;;;;4.38;1.63;;;;;;;18.29;40.02;101078.31;4986654;28;20045;-70
2023/04/25 03:51:19;;;;;;;7.60;1.60;;;;;;;18.29;40.04;101080.94;4983763;28;20095;-69
2023/04/25 03:53:44;;;;;;;4.95;1.70;;;;;;;18.29;39.93;101086.22;4990414;28;20313;-69
2023/04/25 03:56:10;;;;;;;4.80;1.60;;;;;;;18.29;39.91;101083.56;4989377;28;20046;-70
2023/04/25 03:58:35;;;;;;;4.40;1.60;;;;;;;18.29;40.05;101086.22;4983353;28;20042;-69
2023/04/25 04:01:02;;;;;;;6.30;1.90;;;;;;;18.27;40.03;101095.19;4983005;28;20065;-69
2023/04/25 04:03:28;;;;;;;5.22;1.63;;;;;;;18.29;39.83;101098.53;4991585;28;20061;-70
2023/04/25 04:05:53;;;;;;;4.95;1.70;;;;;;;18.26;40.07;101102.28;4990521;28;20474;-68
2023/04/25 04:08:19;;;;;;;5.63;1.52;;;;;;;18.26;39.87;101101.41;4984768;28;20038;-69
2023/04/25 04:10:44;;;;;;;5.90;1.95;;;;;;;18.25;39.87;101108.50;4982188;28;20395;-70
2023/04/25 04:13:10;;;;;;;5.95;1.85;;;;;;;18.26;39.78;101106.69;4990594;28;20060;-70
2023/04/25 04:15:35;;;;;;;5.50;1.50;;;;;;;18.25;39.94;101105.03;4995345;28;20033;-69
2023/04/25 04:18:02;;;;;;;5.45;1.88;;;;;;;18.25;39.70;101115.59;4993670;28;20042;-69
2023/04/25 04:20:29;;;;;;;6.43;1.70;;;;;;;18.26;39.88;101111.97;4996901;28;20034;-70
2023/04/25 04:22:54;;;;;;;5.15;1.50;;;;;;;18.24;39.95;101116.53;4995091;28;20034;-70
2023/04/25 04:25:20;;;;;;;5.00;1.60;;;;;;;18.25;40.02;101113.78;4969034;28;20058;-72
2023/04/25 04:27:45;;;;;;;4.23;1.70;;;;;;;18.23;39.98;101117.47;4978110;28;20125;-70
2023/04/25 04:30:12;;;;;;;5.10;1.60;;;;;;;18.23;39.82;101115.72;4978461;28;20260;-70
2023/04/25 04:32:38;;;;;;;8.38;2.47;;;;;;;18.22;39.72;101121.09;4969792;28;20039;-69
2023/04/25 04:35:06;;;;;;;5.75;1.92;;;;;;;18.21;39.95;101122.88;4963395;28;20054;-69
2023/04/25 04:37:32;;;;;;;5.22;2.10;;;;;;;18.23;39.98;101120.97;4972150;28;20484;-69
2023/04/25 04:39:57;;;;;;;5.15;1.50;;;;;;;18.23;39.82;101125.41;4962896;28;20668;-69
2023/04/25 04:42:24;;;;;;;5.43;1.75;;;;;;;18.21;39.92;101122.03;4965052;28;20035;-70
2023/04/25 04:44:49;;;;;;;4.57;1.63;;;;;;;18.23;39.85;101130.69;4969556;28;20042;-69
2023/04/25 04:47:15;;;;;;;4.38;1.95;;;;;;;18.22;39.69;101131.66;4972669;28;20092;-68
2023/04/25 04:49:40;;;;;;;4.88;1.77;;;;;;;18.20;39.97;101136.19;4976278;28;20074;-68
2023/04/25 04:52:05;;;;;;;6.10;1.70;;;;;;;18.17;40.15;101134.66;4978772;28;20807;-69
2023/04/25 04:54:31;;;;;;;4.20;1.35;;;;;;;18.20;40.12;101144.09;4979860;28;20113;-69
2023/04/25 04:56:56;;;;;;;4.95;1.50;;;;;;;18.18;40.22;101143.38;4968302;28;20485;-69
2023/04/25 04:59:21;;;;;;;6.30;1.75;;;;;;;18.16;40.21;101147.94;4976411;28;20442;-69
2023/04/25 05:01:47;;;;;;;5.43;1.63;;;;;;;18.15;40.48;101147.13;4973607;28;20064;-68
2023/04/25 05:04:12;;;;;;;5.30;1.60;;;;;;;18.18;40.91;101153.94;4963121;28;20472;-68
2023/04/25 05:06:37;;;;;;;5.22;1.70;;;;;;;18.18;41.06;101152.13;4973161;28;20452;-69
2023/04/25 05:09:03;;;;;;;4.15;1.42;;;;;;;18.21;40.73;101164.25;4962746;28;20035;-69
2023/04/25 05:11:29;;;;;;;6.05;1.58;;;;;;;18.25;40.85;101163.91;4972048;28;20464;-69
2023/04/25 05:13:54;;;;;;;4.05;1.30;;;;;;;18.29;40.89;101168.00;4966445;28;20027;-70
2023/04/25 05:16:20;;;;;;;5.03;1.48;;;;;;;18.33;40.69;101165.13;4967943;28;20039;-69
2023/04/25 05:18:46;;;;;;;6.60;1.80;;;;;;;18.38;40.66;101174.34;4967046;28;20399;-69
2023/04/25 05:21:11;;;;;;;4.30;1.48;;;;;;;18.40;40.63;101172.44;4981496;28;20111;-69
2023/04/25 05:23:38;;;;;;;6.28;1.58;;;;;;;18.47;40.62;101176.28;4969591;28;20483;-69
2023/04/25 05:26:03;;;;;;;5.63;1.80;;;;;;;18.51;40.49;101189.25;4997813;28;20387;-69
2023/04/25 05:28:28;;;;;;;4.03;1.30;;;;;;;18.52;40.43;101193.56;4998221;28;20040;-70
2023/04/25 05:30:54;;;;;;;5.75;1.67;;;;;;;18.56;40.40;101193.19;5000703;28;20092;-70
2023/04/25 05:33:19;;;;;;;4.25;1.27;;;;;;;18.56;40.67;101180.00;4993769;28;20035;-69
2023/04/25 05:35:45;;;;;;;3.20;1.20;;;;;;;18.58;40.47;101177.25;4983093;28;20070;-69
2023/04/25 05:38:10;;;;;;;3.92;1.30;;;;;;;18.62;40.56;101183.97;4997666;28;20042;-70
2023/04/25 05:40:36;;;;;;;4.65;1.58;;;;;;;18.62;40.25;101182.16;4996736;28;20038;-68
2023/04/25 05:43:01;;;;;;;4.68;1.30;;;;;;;18.64;40.38;101182.91;4992451;28;20042;-68
2023/04/25 05:45:26;;;;;;;4.40;1.30;;;;;;;18.65;40.38;101187.22;4995480;28;20036;-68
2023/04/25 05:47:52;;;;;;;4.43;1.20;;;;;;;18.69;40.37;101195.72;4997859;28;20034;-68
2023/04/25 05:50:17;;;;;;;4.15;1.05;;;;;;;18.68;40.30;101194.06;4990570;28;20056;-70
2023/04/25 05:52:42;;;;;;;4.03;1.42;;;;;;;18.74;40.51;101203.28;4967699;28;20445;-72
2023/04/25 05:55:08;;;;;;;5.07;2.03;;;;;;;18.73;40.36;101204.25;4985483;28;20482;-70
2023/04/25 05:57:34;;;;;;;4.65;1.63;;;;;;;18.74;40.24;101203.28;4999110;28;20124;-70
2023/04/25 05:59:59;;;;;;;4.85;1.42;;;;;;;18.74;40.35;101209.41;4993562;28;20036;-70
2023/04/25 06:02:25;;;;;;;5.63;1.73;;;;;;;18.77;40.46;101216.25;5002497;28;20030;-69
2023/04/25 06:04:51;;;;;;;3.35;1.17;;;;;;;18.77;40.31;101222.38;4990507;28;20034;-70
2023/04/25 06:07:16;;;;;;;3.17;1.20;;;;;;;18.75;40.43;101221.66;4993231;28;20042;-69
2023/04/25 06:09:42;;;;;;;3.92;1.30;;;;;;;18.76;40.21;101223.34;5003128;28;20074;-71
2023/04/25 06:12:07;;;;;;;4.90;1.48;;;;;;;18.77;40.49;101227.66;5002182;28;20081;-69
2023/04/25 06:14:36;;;;;;;5.37;1.63;;;;;;;18.79;40.28;101232.84;4994574;28;20034;-70
2023/04/25 06:17:06;;;;;;;5.32;1.42;;;;;;;18.80;40.21;101235.34;4986894;28;20276;-69
2023/04/25 06:19:35;;;;;;;5.15;1.65;;;;;;;18.77;40.22;101230.31;4985799;28;20042;-69
2023/04/25 06:22:01;;;;;;;6.40;1.70;;;;;;;18.76;40.19;101233.06;4985887;28;20072;-69
2023/04/25 06:24:26;;;;;;;6.40;1.65;;;;;;;18.78;40.26;101242.53;4997208;28;20655;-70
2023/04/25 06:26:52;;;;;;;5.85;1.92;;;;;;;18.77;40.59;101235.59;5004194;28;20038;-69
2023/04/25 06:29:18;;;;;;;4.78;1.58;;;;;;;18.77;40.90;101246.16;5002343;28;20447;-70
2023/04/25 06:31:43;;;;;;;5.28;1.90;;;;;;;18.78;40.90;101241.69;4997448;28;20199;-70
2023/04/25 06:34:09;;;;;;;5.97;1.58;;;;;;;18.77;40.88;101240.00;4986924;28;20747;-71
2023/04/25 06:36:34;;;;;;;7.23;1.63;;;;;;;18.77;41.21;101240.00;4986186;28;20030;-71
2023/04/25 06:38:59;;;;;;;6.78;1.90;;;;;;;18.77;41.09;101250.56;4997832;28;21217;-70
2023/04/25 06:41:25;;;;;;;5.22;1.67;;;;;;;18.80;41.14;101252.97;5002533;28;20117;-70
2023/04/25 06:43:50;;;;;;;4.38;1.30;;;;;;;18.81;40.99;101252.03;4998632;28;20061;-70
2023/04/25 06:46:15;;;;;;;6.13;1.60;;;;;;;18.81;40.66;101254.66;4997088;28;20038;-70
2023/04/25 06:48:40;;;;;;;3.72;1.27;;;;;;;18.80;40.99;101260.91;4992825;28;20315;-69
2023/04/25 06:51:06;;;;;;;4.25;1.27;;;;;;;18.79;40.56;101254.78;5003999;28;20034;-70
2023/04/25 06:53:31;;;;;;;5.13;1.77;;;;;;;18.85;40.85;101264.06;4999635;28;20097;-70
2023/04/25 06:55:56;;;;;;;5.60;1.60;;;;;;;18.84;40.86;101259.75;4997534;28;20354;-68
2023/04/25 06:58:22;;;;;;;5.23;1.20;;;;;;;18.85;40.84;101257.00;5003520;28;20745;-69
2023/04/25 07:00:47;;;;;;;3.55;1.17;;;;;;;18.87;40.88;101263.94;4982917;28;20439;-69
2023/04/25 07:03:12;;;;;;;4.57;1.20;;;;;;;18.87;40.95;101261.28;4994675;28;20037;-69
2023/04/25 07:05:38;;;;;;;4.22;1.38;;;;;;;18.89;40.94;101264.66;5000732;28;20038;-72
2023/04/25 07:08:03;;;;;;;4.78;1.38;;;;;;;18.89;40.95;101268.13;4993001;28;20394;-69
2023/04/25 07:10:29;;;;;;;4.85;1.63;;;;;;;18.92;41.02;101267.06;4997498;28;20041;-69
2023/04/25 07:12:54;;;;;;;6.10;1.40;;;;;;;18.93;40.73;101266.09;4988896;28;20030;-69
2023/04/25 07:15:20;;;;;;;4.22;1.20;;;;;;;18.91;40.81;101273.31;4999449;28;20030;-69
2023/04/25 07:17:46;;;;;;;5.13;1.38;;;;;;;18.92;40.88;101270.53;4996493;28;20064;-68
2023/04/25 07:20:12;;;;;;;4.80;1.13;;;;;;;18.92;40.85;101277.63;4988074;28;20038;-68
2023/04/25 07:22:37;;;;;;;4.75;1.45;;;;;;;18.93;40.85;101288.09;4984100;28;20052;-69
2023/04/25 07:25:04;;;;;;;14.43;2.40;;;;;;;18.93;40.72;101281.94;4983345;28;20423;-68
2023/04/25 07:27:30;;;;;;;4.13;1.27;;;;;;;18.95;41.07;101285.31;4986518;28;20848;-68
2023/04/25 07:29:55;;;;;;;5.22;1.27;;;;;;;18.94;41.06;101283.63;4989181;28;20121;-70
2023/04/25 07:32:20;;;;;;;5.50;1.33;;;;;;;18.97;41.16;101297.44;4995737;28;20037;-71
2023/04/25 07:34:45;;;;;;;3.50;1.10;;;;;;;18.96;41.31;101287.84;5001470;28;20076;-70
2023/04/25 07:37:11;;;;;;;4.47;1.50;;;;;;;18.95;40.92;101291.44;5002572;28;20334;-70
2023/04/25 07:39:37;;;;;;;3.63;1.20;;;;;;;18.97;40.75;101300.06;4996044;28;20271;-69
2023/04/25 07:42:03;;;;;;;5.22;1.92;;;;;;;18.99;40.61;101307.88;5002817;28;20505;-67
2023/04/25 07:44:30;;;;;;;4.55;1.15;;;;;;;18.99;40.37;101307.88;5002736;28;20048;-66
2023/04/25 07:46:55;;;;;;;5.95;1.27;;;;;;;19.03;40.34;101306.69;5001729;28;21068;-68
2023/04/25 07:49:21;;;;;;;5.68;1.15;;;;;;;19.06;40.31;101314.38;4991944;28;20124;-67
2023/04/25 07:51:46;;;;;;;4.90;1.27;;;;;;;19.10;40.35;101309.69;4988783;28;20048;-67
2023/04/25 07:54:15;;;;;;;5.05;1.23;;;;;;;19.13;40.12;101318.22;4994074;28;20065;-65
2023/04/25 07:56:41;;;;;;;7.32;1.33;;;;;;;19.14;40.03;101319.06;4983647;28;20541;-72
2023/04/25 07:59:06;;;;;;;5.13;1.25;;;;;;;19.13;40.21;101320.84;4985576;28;20125;-67
2023/04/25 08:01:31;;;;;;;4.28;1.30;;;;;;;19.15;40.27;101320.72;4985746;28;20049;-72
2023/04/25 08:03:56;;;;;;;6.55;1.25;;;;;;;19.21;39.97;101323.72;4993436;28;20038;-70
2023/04/25 08:06:22;;;;;;;5.75;1.02;;;;;;;19.25;39.87;101327.00;4997688;28;20485;-71
2023/04/25 08:08:47;;;;;;;4.45;1.00;;;;;;;19.26;39.72;101328.66;4988095;28;20474;-69
2023/04/25 08:11:12;;;;;;;8.43;1.38;;;;;;;19.23;39.44;101333.34;4996903;28;20034;-71
2023/04/25 08:13:38;;;;;;;4.25;1.40;;;;;;;19.18;39.65;101334.56;4990407;28;20040;-71
2023/04/25 08:16:03;;;;;;;3.45;0.88;;;;;;;19.19;39.92;101332.75;4992310;28;20116;-72
2023/04/25 08:18:28;;;;;;;5.90;1.10;;;;;;;19.18;39.81;101339.84;4992415;28;20033;-72
2023/04/25 08:20:54;;;;;;;5.78;1.30;;;;;;;19.16;39.88;101352.31;4997949;28;20040;-73
2023/04/25 08:23:19;;;;;;;5.40;1.30;;;;;;;19.14;39.90;101353.41;4988526;28;20117;-72
2023/04/25 08:25:44;;;;;;;4.50;1.17;;;;;;;19.12;39.70;101363.25;4995923;28;20068;-73
2023/04/25 08:28:10;;;;;;;5.95;1.40;;;;;;;19.13;39.75;101359.66;4994792;28;20046;-71
2023/04/25 08:30:36;;;;;;;4.82;1.20;;;;;;;19.14;39.88;101366.63;4991327;28;20125;-70
2023/04/25 08:33:01;;;;;;;4.85;1.17;;;;;;;19.17;39.77;101364.59;4992640;28;20139;-72
2023/04/25 08:35:27;;;;;;;4.07;1.38;;;;;;;19.17;39.74;101371.69;4988265;28;20507;-71
2023/04/25 08:37:52;;;;;;;7.15;1.40;;;;;;;19.14;39.86;101369.28;4994154;28;20041;-70
2023/04/25 08:40:19;;;;;;;5.53;1.55;;;;;;;19.13;39.87;101371.06;4989759;28;20030;-70
2023/04/25 08:42:46;;;;;;;5.80;0.98;;;;;;;19.12;39.88;101377.31;4996455;28;20039;-71
2023/04/25 08:45:11;;;;;;;4.88;1.10;;;;;;;19.11;39.93;101378.25;4990672;28;20038;-70
2023/04/25 08:47:38;;;;;;;5.35;1.20;;;;;;;19.08;39.98;101382.94;4998684;28;20383;-69
2023/04/25 08:50:05;;;;;;;5.95;1.10;;;;;;;19.08;39.85;101381.13;4992519;28;20053;-70
2023/04/25 08:52:37;;;;;;;5.18;1.20;;;;;;;19.07;39.97;101383.91;4992357;28;20088;-72
2023/04/25 08:55:03;;;;;;;4.68;1.20;;;;;;;19.10;39.81;101389.78;4994401;28;20033;-72
2023/04/25 08:57:30;;;;;;;5.28;1.58;;;;;;;19.11;40.00;101394.13;4988806;28;20084;-70
2023/04/25 08:59:57;;;;;;;6.60;1.52;;;;;;;19.09;40.24;101400.47;4984276;28;20037;-70
2023/04/25 09:02:24;;;;;;;7.63;1.52;;;;;;;19.08;40.02;101404.09;4997708;28;20096;-74
2023/04/25 09:04:49;;;;;;;4.20;1.13;;;;;;;19.07;39.99;101411.16;4998633;28;20033;-70
2023/04/25 09:07:18;;;;;;;3.63;1.10;;;;;;;19.07;39.85;101423.53;4988720;28;20035;-71
2023/04/25 09:09:43;;;;;;;5.13;1.45;;;;;;;19.07;40.05;101431.44;4992268;28;20033;-71
2023/04/25 09:12:09;;;;;;;4.28;1.40;;;;;;;19.06;40.12;101429.75;4990615;28;20042;-72
2023/04/25 09:14:34;;;;;;;6.30;1.60;;;;;;;19.07;40.07;101431.44;4993168;28;20034;-71
2023/04/25 09:17:02;;;;;;;5.00;1.05;;;;;;;19.05;40.18;101433.38;4990522;28;20033;-70
2023/04/25 09:19:33;;;;;;;4.50;1.13;;;;;;;19.01;40.14;101433.59;4992895;28;20538;-69
2023/04/25 09:22:00;;;;;;;4.60;1.13;;;;;;;19.06;39.96;101441.19;5000840;28;20545;-69
2023/04/25 09:24:34;;;;;;;7.68;2.50;;;;;;;19.06;40.10;101442.97;4994203;28;20124;-75
2023/04/25 09:27:01;;;;;;;4.28;1.08;;;;;;;19.10;39.48;101441.78;4994984;28;20049;-69
2023/04/25 09:29:34;;;;;;;5.60;1.17;;;;;;;19.08;39.86;101455.09;4990134;28;20045;-65
2023/04/25 09:32:12;;;;;;;3.38;1.00;;;;;;;19.06;40.06;101458.81;4991281;28;20045;-70
2023/04/25 09:34:42;;;;;;;5.07;0.90;;;;;;;19.04;40.06;101453.66;4999239;28;20593;-69
2023/04/25 09:37:11;;;;;;;4.35;1.17;;;;;;;19.04;39.83;101445.72;4971595;28;20034;-68
2023/04/25 09:39:38;;;;;;;4.22;0.90;;;;;;;19.06;40.00;101459.69;4988135;28;20451;-69
2023/04/25 09:42:04;;;;;;;5.25;1.10;;;;;;;19.02;40.08;101453.75;4980502;28;20402;-67
2023/04/25 09:44:29;;;;;;;6.25;1.10;;;;;;;19.05;40.15;101451.88;4993218;28;20038;-69
2023/04/25 09:46:55;;;;;;;5.47;1.10;;;;;;;19.03;39.93;101455.44;4994815;28;20045;-69
2023/04/25 09:49:21;;;;;;;6.80;1.25;;;;;;;19.04;40.02;101464.22;4986255;28;20873;-67
2023/04/25 09:51:56;;;;;;;4.88;1.42;;;;;;;19.02;40.39;101453.75;4984870;28;20037;-68
2023/04/25 09:54:23;;;;;;;2.95;1.00;;;;;;;19.02;40.01;101458.22;4991241;28;20064;-68
2023/04/25 09:56:51;;;;;;;4.80;1.20;;;;;;;19.06;39.96;101457.03;5003350;28;20081;-70
2023/04/25 09:59:20;;;;;;;6.22;1.20;;;;;;;19.10;40.01;101450.53;4972838;28;20038;-69
2023/04/25 10:01:46;;;;;;;4.75;1.13;;;;;;;19.12;40.12;101453.94;5003450;28;20588;-70
2023/04/25 10:04:11;;;;;;;6.10;1.13;;;;;;;19.13;40.21;101460.03;4993155;28;20076;-68
2023/04/25 10:06:38;;;;;;;5.50;1.17;;;;;;;19.09;40.23;101469.16;4990758;28;20072;-67
2023/04/25 10:09:04;;;;;;;3.70;1.00;;;;;;;19.02;40.33;101460.84;5000638;28;20241;-68
2023/04/25 10:11:31;;;;;;;2.88;1.05;;;;;;;19.03;40.34;101465.19;4988084;28;20562;-68
2023/04/25 10:13:57;;;;;;;4.10;1.10;;;;;;;19.02;40.35;101466.97;5003975;28;20042;-67
2023/04/25 10:16:24;;;;;;;5.95;1.10;;;;;;;19.00;40.59;101457.50;4995184;28;20045;-71
2023/04/25 10:18:50;;;;;;;5.22;1.15;;;;;;;19.02;40.27;101459.03;4997841;28;20030;-71
2023/04/25 10:21:16;;;;;;;4.72;0.93;;;;;;;19.07;40.30;101466.63;5002505;28;20057;-68
2023/04/25 10:23:42;;;;;;;3.63;1.02;;;;;;;19.20;40.40;101462.13;4997428;28;20033;-68
2023/04/25 10:26:13;;;;;;;4.05;1.00;;;;;;;19.36;39.95;101460.94;4984436;28;20054;-69
2023/04/25 10:28:56;;;;;;;3.72;0.90;;;;;;;19.39;39.78;101458.03;4992181;28;20487;-68
2023/04/25 10:31:21;;;;;;;2.70;0.80;;;;;;;19.41;39.44;101461.44;4992770;28;20505;-67
2023/04/25 10:33:48;;;;;;;4.22;1.05;;;;;;;19.34;39.78;101466.34;4991007;28;20034;-67
2023/04/25 10:36:22;;;;;;;5.18;1.00;;;;;;;19.32;39.91;101465.59;4989614;28;20364;-67
2023/04/25 10:38:50;;;;;;;3.72;0.93;;;;;;;19.39;39.93;101476.53;4996304;28;20395;-70
2023/04/25 10:41:18;;;;;;;5.53;1.00;;;;;;;19.40;39.92;101475.59;4993096;28;20088;-71
2023/04/25 10:43:45;;;;;;;3.60;0.95;;;;;;;19.40;40.06;101470.31;4987273;28;20061;-69
2023/04/25 10:46:30;;;;;;;2.80;0.90;;;;;;;19.42;39.77;101472.84;4999635;28;20060;-69
2023/04/25 10:49:00;;;;;;;5.38;1.02;;;;;;;19.40;39.79;101470.31;4992980;28;20070;-69
2023/04/25 10:51:32;;;;;;;5.95;1.17;;;;;;;19.38;39.70;101478.34;5004143;28;20048;-69
2023/04/25 10:54:03;;;;;;;5.50;0.90;;;;;;;19.29;39.99;101462.38;5003850;28;20034;-69
2023/04/25 10:56:30;;;;;;;3.22;1.00;;;;;;;19.34;39.95;101473.41;5001198;28;20128;-68
2023/04/25 10:59:11;;;;;;;3.58;1.13;;;;;;;19.33;39.95;101474.41;4990877;28;20514;-68
2023/04/25 11:01:43;;;;;;;5.90;1.10;;;;;;;19.33;39.85;101467.31;4996481;28;20045;-68
2023/04/25 11:04:30;;;;;;;4.80;1.20;;;;;;;19.28;39.94;101458.88;4992878;28;20029;-68
2023/04/25 11:07:00;;;;;;;3.35;1.00;;;;;;;19.31;39.78;101473.66;5002454;28;20096;-69
2023/04/25 11:09:26;;;;;;;5.13;1.38;;;;;;;19.25;39.69;101469.69;5002147;28;20034;-68
2023/04/25 11:11:56;;;;;;;4.55;1.10;;;;;;;19.24;39.96;101485.66;4998177;28;20121;-68
2023/04/25 11:14:21;;;;;;;3.47;1.13;;;;;;;19.26;39.87;101481.09;4994148;28;20027;-70
2023/04/25 11:16:47;;;;;;;4.38;1.10;;;;;;;19.27;39.80;101485.44;5003037;28;20048;-70
2023/04/25 11:19:12;;;;;;;4.57;1.00;;;;;;;19.28;39.54;101493.25;5002884;28;20119;-68